createdAt,value
2022-10-04T00:00:16.681Z,59.89
2022-10-04T00:01:18.960Z,59.84
2022-10-04T00:02:21.867Z,59.76
2022-10-04T00:03:23.691Z,59.76
2022-10-04T00:04:25.570Z,59.78
2022-10-04T00:05:27.413Z,59.78
2022-10-04T00:06:29.649Z,59.80
2022-10-04T00:07:31.482Z,59.82
2022-10-04T00:08:33.325Z,59.81
2022-10-04T00:09:35.201Z,59.77
2022-10-04T00:10:37.129Z,59.74
2022-10-04T00:11:39.069Z,59.76
2022-10-04T00:12:41.101Z,59.76
2022-10-04T00:13:43.205Z,59.73
2022-10-04T00:14:45.071Z,59.69
2022-10-04T00:15:47.056Z,59.62
2022-10-04T00:16:48.947Z,59.55
2022-10-04T00:17:50.784Z,59.58
2022-10-04T00:18:52.634Z,59.63
2022-10-04T00:19:54.479Z,59.72
2022-10-04T00:20:56.305Z,59.83
2022-10-04T00:21:58.144Z,59.83
2022-10-04T00:22:59.973Z,59.83
2022-10-04T00:24:01.813Z,59.82
2022-10-04T00:25:03.672Z,59.83
2022-10-04T00:26:06.021Z,59.82
2022-10-04T00:27:07.857Z,59.81
2022-10-04T00:28:09.753Z,59.51
2022-10-04T00:29:11.647Z,59.81
2022-10-04T00:30:13.954Z,59.82
2022-10-04T00:31:15.843Z,59.86
2022-10-04T00:32:17.703Z,59.96
2022-10-04T00:33:19.528Z,60.07
2022-10-04T00:34:21.371Z,60.14
2022-10-04T00:35:23.257Z,60.18
2022-10-04T00:36:25.294Z,60.23
2022-10-04T00:37:27.234Z,60.30
2022-10-04T00:38:29.073Z,60.30
2022-10-04T00:39:30.908Z,60.21
2022-10-04T00:40:32.906Z,60.12
2022-10-04T00:41:34.742Z,60.09
2022-10-04T00:42:36.565Z,60.13
2022-10-04T00:43:38.388Z,60.18
2022-10-04T00:44:40.312Z,60.19
2022-10-04T00:45:42.187Z,60.24
2022-10-04T00:46:44.137Z,60.31
2022-10-04T00:47:45.976Z,60.58
2022-10-04T00:48:47.815Z,60.58
2022-10-04T00:49:49.662Z,60.32
2022-10-04T00:50:51.734Z,60.40
2022-10-04T00:51:53.554Z,60.46
2022-10-04T00:52:55.400Z,60.41
2022-10-04T00:53:57.241Z,60.40
2022-10-04T00:54:59.066Z,60.40
2022-10-04T00:56:00.940Z,60.43
2022-10-04T00:57:02.796Z,60.41
2022-10-04T00:58:04.626Z,60.38
2022-10-04T00:59:06.455Z,60.35
2022-10-04T01:00:08.477Z,60.36
2022-10-04T01:01:11.186Z,60.37
2022-10-04T01:02:13.206Z,60.38
2022-10-04T01:03:15.033Z,60.35
2022-10-04T01:04:16.883Z,60.26
2022-10-04T01:05:18.709Z,60.15
2022-10-04T01:06:20.573Z,60.08
2022-10-04T01:07:22.457Z,60.08
2022-10-04T01:08:24.300Z,60.06
2022-10-04T01:09:26.113Z,60.04
2022-10-04T01:10:28.047Z,59.99
2022-10-04T01:11:29.899Z,59.99
2022-10-04T01:12:31.733Z,60.00
2022-10-04T01:13:33.705Z,60.17
2022-10-04T01:14:35.511Z,60.17
2022-10-04T01:15:37.455Z,60.02
2022-10-04T01:16:39.588Z,60.07
2022-10-04T01:17:41.407Z,60.07
2022-10-04T01:18:43.230Z,60.05
2022-10-04T01:19:45.081Z,60.10
2022-10-04T01:20:47.016Z,60.08
2022-10-04T01:21:48.890Z,60.11
2022-10-04T01:22:50.713Z,60.11
2022-10-04T01:23:52.566Z,60.07
2022-10-04T01:24:54.402Z,60.05
2022-10-04T01:25:56.252Z,60.02
2022-10-04T01:26:58.204Z,60.04
2022-10-04T01:28:00.056Z,60.03
2022-10-04T01:29:01.926Z,60.06
2022-10-04T01:30:03.827Z,60.11
2022-10-04T01:31:05.688Z,60.16
2022-10-04T01:32:07.523Z,60.16
2022-10-04T01:33:09.327Z,60.14
2022-10-04T01:34:11.131Z,60.15
2022-10-04T01:35:12.931Z,60.13
2022-10-04T01:36:14.960Z,60.08
2022-10-04T01:37:16.788Z,60.00
2022-10-04T01:38:18.580Z,59.99
2022-10-04T01:39:20.377Z,60.06
2022-10-04T01:40:22.206Z,60.05
2022-10-04T01:41:24.011Z,60.08
2022-10-04T01:42:25.834Z,60.13
2022-10-04T01:43:27.630Z,60.11
2022-10-04T01:44:29.437Z,60.11
2022-10-04T01:45:31.265Z,60.10
2022-10-04T01:46:33.340Z,60.15
2022-10-04T01:47:35.234Z,60.19
2022-10-04T01:48:37.067Z,60.25
2022-10-04T01:49:38.848Z,60.31
2022-10-04T01:50:40.748Z,60.30
2022-10-04T01:51:42.799Z,60.33
2022-10-04T01:52:44.805Z,60.34
2022-10-04T01:53:46.614Z,60.34
2022-10-04T01:54:48.414Z,60.30
2022-10-04T01:55:50.215Z,60.24
2022-10-04T01:56:52.032Z,60.20
2022-10-04T01:57:53.869Z,60.18
2022-10-04T01:58:55.683Z,60.11
2022-10-04T01:59:57.493Z,60.08
2022-10-04T02:00:59.344Z,60.14
2022-10-04T02:02:01.360Z,60.20
2022-10-04T02:03:05.000Z,60.26
2022-10-04T02:04:06.991Z,60.27
2022-10-04T02:05:08.892Z,60.24
2022-10-04T02:06:11.524Z,60.24
2022-10-04T02:07:13.321Z,60.26
2022-10-04T02:08:15.174Z,60.27
2022-10-04T02:09:16.984Z,60.29
2022-10-04T02:10:18.996Z,60.33
2022-10-04T02:11:20.818Z,60.37
2022-10-04T02:12:22.610Z,60.39
2022-10-04T02:13:24.483Z,60.40
2022-10-04T02:14:26.276Z,60.38
2022-10-04T02:15:28.077Z,60.34
2022-10-04T02:16:30.020Z,60.31
2022-10-04T02:17:32.024Z,60.33
2022-10-04T02:18:33.856Z,60.32
2022-10-04T02:19:35.680Z,60.35
2022-10-04T02:20:37.481Z,60.34
2022-10-04T02:21:39.828Z,60.32
2022-10-04T02:22:41.790Z,60.32
2022-10-04T02:23:43.649Z,60.30
2022-10-04T02:24:45.466Z,60.27
2022-10-04T02:25:47.282Z,60.31
2022-10-04T02:26:49.090Z,60.37
2022-10-04T02:27:50.953Z,60.36
2022-10-04T02:28:52.850Z,60.39
2022-10-04T02:29:54.667Z,60.39
2022-10-04T02:30:56.613Z,60.34
2022-10-04T02:31:58.372Z,60.36
2022-10-04T02:33:00.208Z,60.42
2022-10-04T02:34:02.070Z,60.43
2022-10-04T02:35:03.840Z,60.43
2022-10-04T02:36:05.739Z,60.48
2022-10-04T02:37:07.546Z,60.49
2022-10-04T02:38:09.346Z,60.39
2022-10-04T02:39:11.192Z,60.39
2022-10-04T02:40:13.914Z,60.34
2022-10-04T02:41:16.211Z,60.30
2022-10-04T02:42:17.916Z,60.28
2022-10-04T02:43:19.723Z,60.23
2022-10-04T02:44:21.553Z,60.21
2022-10-04T02:45:23.385Z,60.19
2022-10-04T02:46:25.646Z,60.06
2022-10-04T02:47:27.593Z,59.93
2022-10-04T02:48:29.480Z,59.89
2022-10-04T02:49:31.328Z,59.90
2022-10-04T02:50:33.042Z,59.89
2022-10-04T02:51:34.833Z,59.83
2022-10-04T02:52:36.641Z,59.79
2022-10-04T02:53:38.447Z,59.76
2022-10-04T02:54:40.281Z,59.77
2022-10-04T02:55:42.103Z,59.75
2022-10-04T02:56:43.998Z,59.72
2022-10-04T02:57:45.821Z,59.71
2022-10-04T02:58:47.628Z,59.71
2022-10-04T02:59:49.475Z,59.74
2022-10-04T03:00:51.413Z,59.78
2022-10-04T03:01:53.334Z,59.81
2022-10-04T03:02:55.223Z,59.79
2022-10-04T03:03:57.505Z,59.74
2022-10-04T03:04:59.351Z,59.73
2022-10-04T03:06:01.160Z,59.74
2022-10-04T03:07:02.964Z,59.84
2022-10-04T03:08:04.767Z,59.89
2022-10-04T03:09:06.790Z,59.90
2022-10-04T03:10:08.833Z,59.94
2022-10-04T03:11:10.900Z,59.98
2022-10-04T03:12:12.708Z,59.98
2022-10-04T03:13:14.408Z,60.03
2022-10-04T03:14:16.217Z,60.16
2022-10-04T03:15:18.074Z,60.21
2022-10-04T03:16:19.940Z,60.18
2022-10-04T03:17:21.667Z,60.20
2022-10-04T03:18:23.500Z,60.25
2022-10-04T03:19:25.386Z,60.31
2022-10-04T03:20:27.434Z,60.31
2022-10-04T03:21:29.240Z,60.31
2022-10-04T03:22:31.057Z,60.31
2022-10-04T03:23:32.864Z,60.30
2022-10-04T03:24:34.677Z,60.28
2022-10-04T03:25:36.542Z,60.29
2022-10-04T03:26:38.734Z,60.28
2022-10-04T03:27:40.544Z,60.29
2022-10-04T03:28:42.581Z,60.28
2022-10-04T03:29:44.381Z,60.25
2022-10-04T03:30:46.223Z,60.26
2022-10-04T03:31:48.121Z,60.27
2022-10-04T03:32:49.937Z,60.27
2022-10-04T03:33:51.736Z,60.34
2022-10-04T03:34:53.562Z,60.35
2022-10-04T03:35:55.412Z,60.39
2022-10-04T03:36:57.221Z,60.44
2022-10-04T03:37:59.035Z,60.48
2022-10-04T03:39:00.831Z,60.51
2022-10-04T03:40:02.653Z,60.54
2022-10-04T03:41:04.553Z,60.57
2022-10-04T03:42:06.369Z,60.61
2022-10-04T03:43:08.190Z,60.50
2022-10-04T03:44:10.023Z,60.41
2022-10-04T03:45:11.865Z,60.34
2022-10-04T03:46:13.898Z,60.32
2022-10-04T03:47:15.684Z,60.26
2022-10-04T03:48:17.529Z,60.16
2022-10-04T03:49:19.368Z,60.06
2022-10-04T03:50:21.267Z,60.01
2022-10-04T03:51:23.144Z,59.99
2022-10-04T03:52:25.022Z,60.00
2022-10-04T03:53:26.858Z,59.91
2022-10-04T03:54:28.681Z,59.76
2022-10-04T03:55:30.537Z,59.65
2022-10-04T03:56:32.435Z,59.72
2022-10-04T03:57:34.253Z,59.72
2022-10-04T03:58:36.072Z,59.57
2022-10-04T03:59:37.952Z,59.54
2022-10-04T04:00:39.758Z,59.52
2022-10-04T04:01:41.889Z,59.54
2022-10-04T04:02:46.265Z,59.60
2022-10-04T04:03:47.542Z,59.69
2022-10-04T04:04:49.384Z,59.78
2022-10-04T04:05:51.249Z,59.88
2022-10-04T04:06:53.124Z,59.86
2022-10-04T04:07:54.970Z,59.91
2022-10-04T04:08:56.804Z,59.99
2022-10-04T04:09:58.641Z,60.10
2022-10-04T04:11:00.471Z,60.18
2022-10-04T04:12:02.322Z,60.19
2022-10-04T04:13:04.170Z,60.17
2022-10-04T04:14:06.003Z,60.11
2022-10-04T04:15:07.826Z,60.04
2022-10-04T04:16:10.156Z,59.96
2022-10-04T04:17:12.053Z,59.89
2022-10-04T04:18:13.885Z,59.91
2022-10-04T04:19:15.722Z,59.95
2022-10-04T04:20:17.800Z,60.00
2022-10-04T04:21:19.653Z,60.07
2022-10-04T04:22:21.511Z,60.21
2022-10-04T04:23:23.406Z,60.27
2022-10-04T04:24:25.173Z,60.31
2022-10-04T04:25:26.978Z,60.29
2022-10-04T04:26:28.803Z,60.34
2022-10-04T04:27:30.672Z,60.42
2022-10-04T04:28:32.619Z,60.47
2022-10-04T04:29:34.570Z,60.67
2022-10-04T04:30:36.382Z,60.67
2022-10-04T04:31:38.274Z,60.38
2022-10-04T04:32:40.209Z,60.37
2022-10-04T04:33:42.014Z,60.38
2022-10-04T04:34:43.836Z,60.40
2022-10-04T04:35:45.685Z,60.43
2022-10-04T04:36:47.559Z,60.46
2022-10-04T04:37:49.414Z,60.49
2022-10-04T04:38:51.237Z,60.57
2022-10-04T04:39:53.077Z,60.68
2022-10-04T04:40:55.121Z,60.79
2022-10-04T04:41:56.958Z,60.87
2022-10-04T04:42:58.811Z,60.97
2022-10-04T04:44:00.644Z,61.03
2022-10-04T04:45:02.467Z,61.05
2022-10-04T04:46:26.179Z,61.10
2022-10-04T04:47:07.939Z,61.16
2022-10-04T04:48:09.807Z,61.20
2022-10-04T04:49:11.654Z,61.25
2022-10-04T04:50:13.582Z,61.33
2022-10-04T04:51:15.517Z,61.37
2022-10-04T04:52:17.364Z,61.41
2022-10-04T04:53:19.234Z,61.53
2022-10-04T04:54:21.078Z,61.66
2022-10-04T04:55:22.879Z,61.73
2022-10-04T04:56:24.718Z,61.82
2022-10-04T04:57:26.550Z,61.92
2022-10-04T04:58:28.394Z,62.00
2022-10-04T04:59:30.250Z,62.02
2022-10-04T05:00:32.055Z,62.00
2022-10-04T05:01:34.025Z,62.00
2022-10-04T05:02:35.899Z,61.95
2022-10-04T05:03:38.373Z,61.96
2022-10-04T05:04:40.203Z,61.93
2022-10-04T05:05:42.056Z,61.86
2022-10-04T05:06:43.984Z,61.81
2022-10-04T05:07:45.838Z,61.77
2022-10-04T05:08:47.700Z,61.77
2022-10-04T05:09:49.505Z,61.78
2022-10-04T05:10:51.332Z,61.77
2022-10-04T05:11:53.161Z,61.76
2022-10-04T05:12:55.009Z,61.74
2022-10-04T05:13:56.868Z,61.71
2022-10-04T05:14:58.715Z,61.69
2022-10-04T05:16:00.574Z,61.70
2022-10-04T05:17:02.379Z,61.63
2022-10-04T05:18:04.205Z,61.59
2022-10-04T05:19:06.081Z,61.59
2022-10-04T05:20:08.228Z,61.63
2022-10-04T05:21:10.054Z,61.73
2022-10-04T05:22:11.888Z,61.74
2022-10-04T05:23:14.753Z,61.67
2022-10-04T05:24:16.633Z,61.65
2022-10-04T05:25:18.475Z,61.69
2022-10-04T05:26:20.817Z,61.67
2022-10-04T05:27:22.641Z,61.72
2022-10-04T05:28:24.565Z,61.72
2022-10-04T05:29:26.426Z,61.70
2022-10-04T05:30:28.263Z,61.69
2022-10-04T05:31:30.133Z,61.74
2022-10-04T05:32:31.891Z,61.72
2022-10-04T05:33:34.031Z,61.66
2022-10-04T05:34:35.891Z,61.58
2022-10-04T05:35:37.734Z,61.48
2022-10-04T05:36:39.672Z,61.48
2022-10-04T05:37:41.507Z,61.46
2022-10-04T05:38:43.363Z,61.48
2022-10-04T05:39:45.241Z,61.48
2022-10-04T05:40:47.094Z,61.47
2022-10-04T05:41:48.925Z,61.43
2022-10-04T05:42:50.761Z,61.43
2022-10-04T05:43:52.591Z,61.42
2022-10-04T05:44:54.468Z,61.40
2022-10-04T05:45:56.369Z,61.40
2022-10-04T05:46:58.164Z,61.38
2022-10-04T05:47:59.989Z,61.40
2022-10-04T05:49:01.801Z,61.29
2022-10-04T05:50:03.781Z,61.08
2022-10-04T05:51:05.633Z,60.94
2022-10-04T05:52:07.431Z,60.87
2022-10-04T05:53:10.609Z,60.63
2022-10-04T05:54:13.156Z,60.83
2022-10-04T05:55:15.017Z,60.74
2022-10-04T05:56:16.979Z,60.78
2022-10-04T05:57:19.068Z,60.63
2022-10-04T05:58:20.905Z,60.73
2022-10-04T05:59:22.774Z,60.82
2022-10-04T06:00:24.737Z,60.84
2022-10-04T06:01:26.640Z,60.81
2022-10-04T06:02:28.561Z,60.65
2022-10-04T06:03:30.615Z,60.41
2022-10-04T06:04:33.645Z,60.11
2022-10-04T06:05:35.899Z,59.86
2022-10-04T06:06:38.019Z,59.64
2022-10-04T06:07:40.940Z,59.56
2022-10-04T06:08:42.835Z,59.38
2022-10-04T06:09:44.743Z,59.18
2022-10-04T06:10:46.680Z,59.15
2022-10-04T06:11:48.506Z,59.30
2022-10-04T06:12:50.331Z,59.33
2022-10-04T06:13:52.130Z,59.27
2022-10-04T06:14:53.935Z,59.17
2022-10-04T06:15:55.792Z,59.07
2022-10-04T06:16:57.768Z,58.99
2022-10-04T06:17:59.591Z,58.86
2022-10-04T06:19:02.606Z,58.84
2022-10-04T06:20:04.500Z,58.89
2022-10-04T06:21:06.347Z,58.95
2022-10-04T06:22:08.172Z,59.10
2022-10-04T06:23:09.971Z,59.15
2022-10-04T06:24:11.789Z,59.21
2022-10-04T06:25:13.621Z,59.26
2022-10-04T06:26:15.717Z,59.29
2022-10-04T06:27:17.534Z,59.39
2022-10-04T06:28:19.407Z,59.52
2022-10-04T06:29:21.250Z,59.58
2022-10-04T06:30:23.060Z,59.63
2022-10-04T06:31:24.913Z,59.71
2022-10-04T06:32:26.732Z,59.76
2022-10-04T06:33:28.571Z,59.86
2022-10-04T06:34:30.376Z,59.85
2022-10-04T06:35:32.178Z,59.83
2022-10-04T06:36:34.150Z,59.86
2022-10-04T06:37:35.969Z,59.95
2022-10-04T06:38:37.827Z,59.97
2022-10-04T06:39:39.647Z,59.85
2022-10-04T06:40:41.755Z,59.84
2022-10-04T06:41:43.947Z,59.75
2022-10-04T06:42:45.909Z,59.60
2022-10-04T06:43:47.706Z,59.46
2022-10-04T06:44:49.513Z,59.34
2022-10-04T06:45:51.353Z,59.24
2022-10-04T06:46:53.165Z,59.13
2022-10-04T06:47:54.976Z,59.07
2022-10-04T06:48:56.776Z,59.07
2022-10-04T06:49:58.596Z,58.89
2022-10-04T06:51:00.502Z,58.76
2022-10-04T06:52:02.381Z,58.69
2022-10-04T06:53:04.185Z,58.41
2022-10-04T06:54:05.990Z,58.41
2022-10-04T06:55:07.800Z,58.31
2022-10-04T06:56:10.711Z,58.18
2022-10-04T06:57:12.559Z,57.72
2022-10-04T06:58:14.463Z,57.77
2022-10-04T06:59:16.258Z,57.76
2022-10-04T07:00:18.080Z,57.73
2022-10-04T07:01:19.926Z,57.66
2022-10-04T07:02:21.787Z,57.66
2022-10-04T07:03:23.647Z,57.16
2022-10-04T07:04:25.470Z,57.15
2022-10-04T07:05:27.274Z,57.17
2022-10-04T07:06:29.490Z,57.16
2022-10-04T07:07:31.231Z,57.15
2022-10-04T07:08:33.046Z,57.07
2022-10-04T07:09:34.888Z,57.04
2022-10-04T07:10:36.787Z,56.64
2022-10-04T07:11:38.633Z,56.64
2022-10-04T07:12:42.987Z,56.64
2022-10-04T07:13:44.845Z,56.72
2022-10-04T07:14:46.648Z,56.81
2022-10-04T07:15:48.438Z,56.81
2022-10-04T07:16:50.280Z,56.91
2022-10-04T07:17:52.143Z,57.01
2022-10-04T07:18:53.948Z,57.15
2022-10-04T07:19:55.758Z,57.17
2022-10-04T07:20:57.573Z,57.13
2022-10-04T07:21:59.369Z,57.13
2022-10-04T07:23:01.221Z,57.02
2022-10-04T07:24:03.046Z,57.11
2022-10-04T07:25:04.868Z,57.20
2022-10-04T07:26:07.078Z,57.29
2022-10-04T07:27:08.979Z,57.32
2022-10-04T07:28:10.940Z,57.37
2022-10-04T07:29:12.790Z,57.22
2022-10-04T07:30:14.719Z,56.97
2022-10-04T07:31:16.587Z,56.79
2022-10-04T07:32:18.451Z,56.83
2022-10-04T07:33:20.287Z,56.89
2022-10-04T07:34:22.113Z,57.00
2022-10-04T07:35:23.948Z,57.04
2022-10-04T07:36:25.878Z,56.98
2022-10-04T07:37:27.663Z,56.90
2022-10-04T07:38:29.536Z,56.82
2022-10-04T07:39:31.334Z,56.48
2022-10-04T07:40:33.159Z,56.39
2022-10-04T07:41:34.968Z,56.42
2022-10-04T07:42:36.845Z,56.51
2022-10-04T07:43:38.686Z,56.60
2022-10-04T07:44:40.511Z,56.60
2022-10-04T07:45:42.360Z,56.69
2022-10-04T07:46:44.115Z,56.43
2022-10-04T07:47:45.931Z,56.46
2022-10-04T07:48:47.766Z,56.64
2022-10-04T07:49:49.593Z,56.79
2022-10-04T07:50:51.502Z,56.88
2022-10-04T07:51:53.315Z,56.70
2022-10-04T07:52:55.111Z,56.79
2022-10-04T07:53:56.976Z,56.82
2022-10-04T07:54:58.804Z,56.92
2022-10-04T07:56:00.594Z,56.95
2022-10-04T07:57:02.427Z,56.92
2022-10-04T07:58:04.228Z,57.12
2022-10-04T07:59:06.072Z,57.25
2022-10-04T08:00:08.286Z,57.30
2022-10-04T08:01:10.180Z,56.78
2022-10-04T08:02:12.230Z,56.95
2022-10-04T08:03:14.236Z,57.07
2022-10-04T08:04:16.076Z,57.09
2022-10-04T08:05:17.915Z,57.12
2022-10-04T08:06:19.743Z,56.71
2022-10-04T08:07:21.560Z,56.58
2022-10-04T08:08:23.402Z,56.58
2022-10-04T08:09:25.270Z,56.75
2022-10-04T08:10:27.102Z,56.65
2022-10-04T08:11:28.945Z,56.48
2022-10-04T08:12:30.766Z,56.55
2022-10-04T08:13:32.615Z,56.53
2022-10-04T08:14:34.492Z,56.35
2022-10-04T08:15:36.409Z,55.88
2022-10-04T08:16:38.463Z,55.80
2022-10-04T08:17:41.566Z,55.73
2022-10-04T08:18:43.364Z,55.21
2022-10-04T08:19:45.256Z,55.06
2022-10-04T08:20:47.102Z,55.04
2022-10-04T08:21:49.241Z,55.12
2022-10-04T08:22:51.089Z,55.74
2022-10-04T08:23:52.949Z,55.74
2022-10-04T08:24:54.808Z,55.68
2022-10-04T08:25:56.688Z,55.64
2022-10-04T08:26:58.526Z,55.47
2022-10-04T08:28:00.372Z,55.31
2022-10-04T08:29:02.251Z,55.05
2022-10-04T08:30:04.131Z,54.63
2022-10-04T08:31:06.005Z,54.51
2022-10-04T08:32:07.789Z,54.87
2022-10-04T08:33:09.618Z,54.78
2022-10-04T08:34:11.469Z,54.94
2022-10-04T08:35:13.343Z,54.91
2022-10-04T08:36:15.188Z,54.73
2022-10-04T08:37:17.031Z,54.71
2022-10-04T08:38:18.878Z,54.52
2022-10-04T08:39:20.708Z,53.84
2022-10-04T08:40:22.579Z,53.96
2022-10-04T08:41:24.536Z,54.16
2022-10-04T08:42:26.360Z,54.08
2022-10-04T08:43:28.209Z,54.38
2022-10-04T08:44:30.154Z,54.54
2022-10-04T08:45:32.030Z,54.42
2022-10-04T08:46:34.123Z,54.67
2022-10-04T08:47:36.109Z,54.70
2022-10-04T08:48:37.949Z,54.51
2022-10-04T08:49:39.807Z,54.62
2022-10-04T08:50:41.671Z,54.55
2022-10-04T08:51:43.522Z,54.13
2022-10-04T08:52:45.359Z,54.30
2022-10-04T08:53:47.202Z,54.46
2022-10-04T08:54:49.033Z,54.21
2022-10-04T08:55:51.908Z,54.32
2022-10-04T08:56:54.171Z,53.78
2022-10-04T08:57:55.985Z,53.66
2022-10-04T08:58:57.837Z,53.41
2022-10-04T08:59:59.761Z,53.63
2022-10-04T09:01:03.495Z,53.24
2022-10-04T09:02:05.311Z,53.54
2022-10-04T09:03:08.998Z,54.06
2022-10-04T09:04:10.789Z,53.94
2022-10-04T09:05:12.646Z,54.40
2022-10-04T09:06:15.877Z,54.47
2022-10-04T09:07:17.845Z,54.46
2022-10-04T09:08:19.695Z,54.52
2022-10-04T09:09:24.716Z,53.94
2022-10-04T09:10:26.518Z,53.96
2022-10-04T09:11:28.403Z,53.70
2022-10-04T09:12:30.244Z,53.19
2022-10-04T09:13:34.407Z,53.15
2022-10-04T09:14:36.284Z,53.43
2022-10-04T09:15:42.227Z,53.32
2022-10-04T09:16:45.623Z,53.27
2022-10-04T09:17:47.761Z,53.46
2022-10-04T09:18:49.626Z,53.40
2022-10-04T09:19:52.574Z,53.42
2022-10-04T09:20:56.227Z,53.56
2022-10-04T09:21:58.115Z,53.38
2022-10-04T09:23:06.284Z,53.55
2022-10-04T09:24:08.186Z,53.46
2022-10-04T09:25:10.017Z,52.85
2022-10-04T09:26:11.969Z,52.19
2022-10-04T09:27:17.347Z,52.23
2022-10-04T09:28:17.621Z,51.80
2022-10-04T09:29:19.539Z,51.72
2022-10-04T09:30:21.405Z,52.07
2022-10-04T09:31:23.349Z,51.88
2022-10-04T09:32:25.359Z,51.76
2022-10-04T09:33:27.185Z,51.79
2022-10-04T09:34:30.800Z,52.06
2022-10-04T09:35:32.713Z,52.10
2022-10-04T09:36:34.649Z,52.08
2022-10-04T09:37:36.528Z,51.23
2022-10-04T09:38:38.337Z,51.63
2022-10-04T09:39:40.165Z,51.11
2022-10-04T09:40:46.511Z,50.91
2022-10-04T09:41:45.983Z,50.20
2022-10-04T09:42:48.267Z,50.65
2022-10-04T09:43:50.110Z,50.26
2022-10-04T09:44:51.959Z,50.40
2022-10-04T09:45:56.161Z,50.66
2022-10-04T09:46:58.335Z,50.02
2022-10-04T09:48:00.171Z,50.27
2022-10-04T09:49:02.002Z,50.17
2022-10-04T09:50:04.246Z,49.76
2022-10-04T09:51:06.096Z,49.49
2022-10-04T09:52:07.937Z,49.49
2022-10-04T09:53:10.022Z,49.66
2022-10-04T09:54:11.851Z,49.17
2022-10-04T09:56:34.908Z,49.24
2022-10-04T09:57:36.751Z,49.89
2022-10-04T09:58:38.631Z,49.21
2022-10-04T09:59:40.490Z,48.29
2022-10-04T10:00:42.668Z,49.13
2022-10-04T10:01:44.615Z,49.36
2022-10-04T10:02:47.284Z,49.34
2022-10-04T10:03:49.284Z,49.16
2022-10-04T10:04:51.178Z,48.68
2022-10-04T10:05:53.002Z,48.95
2022-10-04T10:06:55.239Z,48.83
2022-10-04T10:07:57.094Z,49.04
2022-10-04T10:08:58.944Z,48.62
2022-10-04T10:10:00.770Z,48.63
2022-10-04T10:11:02.625Z,49.16
2022-10-04T10:12:04.462Z,49.59
2022-10-04T10:13:06.289Z,49.45
2022-10-04T10:14:08.149Z,48.59
2022-10-04T10:15:09.992Z,48.45
2022-10-04T10:16:12.106Z,48.87
2022-10-04T10:17:13.942Z,48.79
2022-10-04T10:18:15.792Z,48.83
2022-10-04T10:19:17.639Z,49.62
2022-10-04T10:20:19.641Z,49.68
2022-10-04T10:21:21.742Z,48.85
2022-10-04T10:22:23.544Z,49.45
2022-10-04T10:23:25.348Z,48.52
2022-10-04T10:24:27.199Z,47.68
2022-10-04T10:25:29.004Z,47.02
2022-10-04T10:26:30.825Z,47.57
2022-10-04T10:27:32.610Z,47.03
2022-10-04T10:28:34.455Z,47.42
2022-10-04T10:29:36.374Z,46.92
2022-10-04T10:30:38.294Z,46.90
2022-10-04T10:31:41.284Z,47.04
2022-10-04T10:32:43.626Z,47.40
2022-10-04T10:33:45.598Z,47.31
2022-10-04T10:34:47.451Z,47.89
2022-10-04T10:35:49.260Z,48.08
2022-10-04T10:36:51.062Z,47.78
2022-10-04T10:37:52.857Z,46.26
2022-10-04T10:38:54.674Z,46.37
2022-10-04T10:39:56.518Z,46.51
2022-10-04T10:40:58.299Z,46.50
2022-10-04T10:42:01.214Z,45.71
2022-10-04T10:49:12.349Z,45.54
2022-10-04T10:50:14.586Z,44.89
2022-10-04T10:51:16.414Z,44.88
2022-10-04T10:52:18.258Z,44.90
2022-10-04T10:53:20.038Z,45.53
2022-10-04T10:54:22.750Z,46.05
2022-10-04T10:55:24.580Z,46.15
2022-10-04T10:56:30.082Z,45.53
2022-10-04T10:57:30.022Z,45.66
2022-10-04T10:58:31.825Z,44.50
2022-10-04T10:59:33.667Z,45.03
2022-10-04T11:00:35.683Z,45.89
2022-10-04T11:01:37.629Z,45.94
2022-10-04T11:02:49.244Z,46.57
2022-10-04T11:03:43.398Z,47.04
2022-10-04T11:04:45.356Z,47.06
2022-10-04T11:05:47.289Z,46.96
2022-10-04T11:06:49.197Z,45.52
2022-10-04T11:07:50.987Z,45.86
2022-10-04T11:08:52.806Z,45.60
2022-10-04T11:09:54.657Z,45.42
2022-10-04T11:10:56.517Z,45.53
2022-10-04T11:11:58.410Z,45.42
2022-10-04T11:13:01.314Z,45.45
2022-10-04T11:14:03.158Z,45.45
2022-10-04T11:15:05.009Z,45.66
2022-10-04T11:16:06.863Z,45.45
2022-10-04T11:17:09.199Z,46.10
2022-10-04T11:18:11.040Z,46.37
2022-10-04T11:19:12.905Z,46.44
2022-10-04T11:20:15.069Z,46.33
2022-10-04T11:21:16.894Z,45.93
2022-10-04T11:22:18.697Z,45.91
2022-10-04T11:23:20.499Z,45.95
2022-10-04T11:24:22.327Z,46.02
2022-10-04T11:25:24.197Z,46.01
2022-10-04T11:26:26.085Z,46.51
2022-10-04T11:27:27.902Z,46.48
2022-10-04T11:28:29.813Z,46.37
2022-10-04T11:29:31.719Z,46.30
2022-10-04T11:30:33.836Z,45.72
2022-10-04T11:31:35.661Z,45.11
2022-10-04T11:32:37.429Z,45.92
2022-10-04T11:33:39.252Z,45.79
2022-10-04T11:34:41.069Z,45.89
2022-10-04T11:35:42.913Z,46.36
2022-10-04T11:36:45.182Z,46.41
2022-10-04T11:37:47.219Z,45.80
2022-10-04T11:38:49.043Z,45.20
2022-10-04T11:39:50.842Z,45.95
2022-10-04T11:40:52.789Z,45.21
2022-10-04T11:41:54.598Z,45.13
2022-10-04T11:42:56.440Z,44.80
2022-10-04T11:43:58.266Z,44.99
2022-10-04T11:45:00.073Z,44.56
2022-10-04T11:46:01.908Z,44.06
2022-10-04T11:47:03.819Z,44.49
2022-10-04T11:48:05.624Z,44.34
2022-10-04T11:49:07.426Z,44.14
2022-10-04T11:50:10.564Z,44.26
2022-10-04T11:51:12.434Z,44.83
2022-10-04T11:52:14.321Z,45.41
2022-10-04T11:53:16.170Z,45.47
2022-10-04T11:54:18.006Z,44.62
2022-10-04T11:55:19.830Z,45.09
2022-10-04T11:56:21.813Z,44.92
2022-10-04T11:57:23.662Z,45.43
2022-10-04T11:58:25.492Z,45.08
2022-10-04T11:59:27.324Z,45.54
2022-10-04T12:00:29.141Z,45.75
2022-10-04T12:01:31.216Z,45.63
2022-10-04T12:02:33.057Z,45.32
2022-10-04T12:03:34.928Z,45.35
2022-10-04T12:04:36.899Z,45.01
2022-10-04T12:05:38.748Z,45.23
2022-10-04T12:06:40.831Z,45.22
2022-10-04T12:07:42.688Z,45.34
2022-10-04T12:08:44.538Z,45.75
2022-10-04T12:09:46.373Z,45.55
2022-10-04T12:10:48.309Z,45.46
2022-10-04T12:11:50.190Z,45.55
2022-10-04T12:12:52.029Z,45.54
2022-10-04T12:13:53.875Z,45.58
2022-10-04T12:14:55.695Z,45.69
2022-10-04T12:15:57.564Z,45.69
2022-10-04T12:16:59.609Z,45.70
2022-10-04T12:18:01.450Z,45.22
2022-10-04T12:19:03.286Z,45.42
2022-10-04T12:20:11.855Z,45.50
2022-10-04T12:21:10.575Z,45.16
2022-10-04T12:22:12.435Z,45.62
2022-10-04T12:23:14.293Z,45.58
2022-10-04T12:24:16.128Z,45.42
2022-10-04T12:25:17.960Z,45.48
2022-10-04T12:26:20.105Z,45.01
2022-10-04T12:27:22.798Z,45.53
2022-10-04T12:28:24.694Z,45.39
2022-10-04T12:29:26.582Z,45.30
2022-10-04T12:30:28.425Z,45.50
2022-10-04T12:31:30.302Z,45.58
2022-10-04T12:32:32.091Z,44.95
2022-10-04T12:33:33.894Z,44.05
2022-10-04T12:34:35.696Z,43.96
2022-10-04T12:35:37.508Z,44.23
2022-10-04T12:36:39.427Z,44.33
2022-10-04T12:37:41.436Z,44.02
2022-10-04T12:38:43.262Z,44.17
2022-10-04T12:39:45.099Z,44.56
2022-10-04T12:40:47.007Z,44.91
2022-10-04T12:41:48.815Z,45.44
2022-10-04T12:42:50.661Z,44.34
2022-10-04T12:43:52.477Z,44.44
2022-10-04T12:44:54.286Z,43.99
2022-10-04T12:45:56.202Z,44.88
2022-10-04T12:46:58.403Z,45.10
2022-10-04T12:48:00.249Z,44.99
2022-10-04T12:49:02.062Z,45.08
2022-10-04T12:50:03.976Z,44.38
2022-10-04T12:51:05.786Z,44.80
2022-10-04T12:52:07.595Z,44.79
2022-10-04T12:53:09.435Z,44.17
2022-10-04T12:54:11.260Z,44.54
2022-10-04T12:55:13.077Z,44.88
2022-10-04T12:56:15.101Z,44.50
2022-10-04T12:57:16.894Z,43.97
2022-10-04T12:58:21.143Z,44.49
2022-10-04T12:59:22.993Z,45.00
2022-10-04T13:00:24.889Z,45.32
2022-10-04T13:01:26.872Z,45.37
2022-10-04T13:02:28.832Z,45.63
2022-10-04T13:03:30.740Z,44.86
2022-10-04T13:04:32.571Z,44.81
2022-10-04T13:05:34.378Z,44.51
2022-10-04T13:06:38.906Z,45.00
2022-10-04T13:07:39.901Z,45.21
2022-10-04T13:08:41.770Z,45.33
2022-10-04T13:09:59.849Z,45.43
2022-10-04T13:11:08.038Z,45.15
2022-10-04T13:12:09.827Z,45.00
2022-10-04T13:13:11.635Z,45.00
2022-10-04T13:14:13.473Z,45.00
2022-10-04T13:15:15.283Z,44.96
2022-10-04T13:17:30.217Z,44.38
2022-10-04T13:18:24.374Z,44.77
2022-10-04T13:19:26.210Z,44.94
2022-10-04T13:20:28.017Z,44.39
2022-10-04T13:21:29.841Z,44.91
2022-10-04T13:22:55.404Z,44.76
2022-10-04T13:23:35.262Z,45.08
2022-10-04T13:24:37.134Z,45.38
2022-10-04T13:25:38.972Z,44.80
2022-10-04T13:26:40.888Z,45.13